Time;durP1;ratioP1;P1;durP2;ratioP2;P2;SDS_P1;SDS_P2;PMS_P1;PMS_P2;Temp;Humidity;BMP_temperature;BMP_pressure;BME280_temperature;BME280_humidity;BME280_pressure;Samples;Min_cycle;Max_cycle;Signal;HPM_P1;HPM_P2
2024/01/30 11:46:56;;;;;;;12.48;7.30;;;;;;;3.71;54.76;101661.50;4945900;28;20078;-95
2024/01/30 11:49:45;;;;;;;15.30;7.82;;;;;;;3.55;54.68;101673.00;4915082;29;20107;-92
2024/01/30 11:52:11;;;;;;;11.32;7.07;;;;;;;3.44;55.31;101679.47;4919425;29;20132;-89
2024/01/30 11:54:45;;;;;;;15.38;7.68;;;;;;;3.48;54.88;101648.00;4901878;29;20032;-90
2024/01/30 11:57:13;;;;;;;15.07;7.38;;;;;;;3.55;55.10;101651.69;4914610;29;20429;-91
2024/01/30 11:59:44;;;;;;;16.63;7.45;;;;;;;3.80;55.04;101691.66;4910458;29;20034;-90
2024/01/30 12:02:15;;;;;;;12.00;6.70;;;;;;;3.87;54.45;101678.50;4908682;29;20087;-89
2024/01/30 12:04:41;;;;;;;12.27;6.97;;;;;;;3.78;53.77;101656.34;4898547;29;20114;-90
2024/01/30 12:07:26;;;;;;;14.98;7.70;;;;;;;3.72;54.20;101665.00;4898016;29;20051;-90
2024/01/30 12:10:19;;;;;;;14.60;7.22;;;;;;;3.83;54.22;101667.34;4918799;29;20095;-89
2024/01/30 12:12:51;;;;;;;16.60;7.88;;;;;;;3.71;53.54;101647.34;4926144;29;20119;-87
2024/01/30 12:15:21;;;;;;;16.55;7.60;;;;;;;3.75;53.24;101652.16;4893040;29;20095;-92
2024/01/30 12:18:18;;;;;;;13.85;8.05;;;;;;;3.92;53.16;101654.81;4894456;29;20031;-89
2024/01/30 12:20:44;;;;;;;16.63;8.63;;;;;;;3.90;53.03;101640.84;4897948;29;20524;-91
2024/01/30 12:23:25;;;;;;;15.82;8.73;;;;;;;3.84;52.88;101643.19;4929768;29;20023;-91
2024/01/30 12:25:54;;;;;;;15.80;8.43;;;;;;;3.75;54.21;101662.81;4899997;29;20020;-90
2024/01/30 12:28:50;;;;;;;14.48;8.25;;;;;;;3.75;52.58;101633.53;4911095;29;20075;-91
2024/01/30 12:31:16;;;;;;;17.08;7.40;;;;;;;3.95;52.91;101657.19;4908581;29;20117;-90
2024/01/30 12:33:52;;;;;;;16.30;7.80;;;;;;;4.07;52.33;101650.50;4894044;29;20122;-90
2024/01/30 12:36:18;;;;;;;15.05;7.85;;;;;;;4.20;51.74;101644.63;4893020;29;20505;-91
2024/01/30 12:38:59;;;;;;;19.10;9.82;;;;;;;4.08;51.47;101644.16;4892080;29;20218;-90
2024/01/30 12:41:36;;;;;;;14.60;8.48;;;;;;;4.07;52.65;101630.97;4908383;29;20065;-90
2024/01/30 12:44:02;;;;;;;21.27;8.23;;;;;;;4.15;52.75;101633.63;4896142;29;20050;-90
2024/01/30 12:47:12;;;;;;;16.58;7.35;;;;;;;4.31;52.94;101646.09;4897303;29;20043;-90
2024/01/30 12:49:37;;;;;;;48.38;24.20;;;;;;;4.36;52.41;101649.09;4916424;29;20028;-89
2024/01/30 12:52:03;;;;;;;39.72;22.85;;;;;;;4.15;53.28;101631.81;4903478;29;20091;-92
2024/01/30 12:54:34;;;;;;;14.50;7.55;;;;;;;4.36;52.69;101646.44;4894674;29;20517;-90
2024/01/30 12:57:12;;;;;;;11.43;6.90;;;;;;;4.22;53.37;101647.97;4912788;29;20027;-89
2024/01/30 12:59:40;;;;;;;10.63;6.43;;;;;;;4.13;53.28;101615.16;4923001;29;20042;-91
2024/01/30 13:02:06;;;;;;;9.60;6.88;;;;;;;4.21;53.33;101625.81;4905836;29;20383;-93
2024/01/30 13:04:31;;;;;;;13.80;7.63;;;;;;;4.31;52.27;101625.59;4896463;29;20042;-92
2024/01/30 13:06:57;;;;;;;12.05;7.25;;;;;;;4.39;52.25;101622.06;4887718;29;20095;-92
2024/01/30 13:09:23;;;;;;;14.32;8.15;;;;;;;4.30;53.31;101642.59;4879105;29;20062;-87
2024/01/30 13:12:00;;;;;;;15.88;8.27;;;;;;;4.18;52.89;101615.47;4900598;29;20035;-90
2024/01/30 13:14:26;;;;;;;22.23;11.13;;;;;;;4.40;52.72;101635.25;4908279;29;20024;-93
2024/01/30 13:16:56;;;;;;;17.25;9.57;;;;;;;4.47;53.12;101645.22;4895099;29;20042;-94
2024/01/30 13:22:05;;;;;;;18.10;9.93;;;;;;;4.42;53.14;101651.91;5033648;23;20063;-94
2024/01/30 13:24:30;;;;;;;15.77;8.35;;;;;;;4.14;54.10;101610.66;4926624;28;20094;-95
2024/01/30 13:26:56;;;;;;;13.18;7.55;;;;;;;4.29;53.88;101630.25;4932364;29;20031;-89
2024/01/30 13:29:22;;;;;;;13.35;7.80;;;;;;;4.27;53.99;101616.25;4923125;28;20065;-90
2024/01/30 13:31:47;;;;;;;22.73;7.75;;;;;;;4.29;52.74;101608.09;4926394;28;20129;-90
2024/01/30 13:34:17;;;;;;;16.52;8.43;;;;;;;4.15;53.41;101609.63;4932368;28;20028;-92
2024/01/30 13:36:46;;;;;;;12.45;7.63;;;;;;;4.11;52.96;101603.84;4928110;28;20037;-89
2024/01/30 13:39:12;;;;;;;12.43;7.00;;;;;;;4.29;51.72;101622.25;4928279;28;20034;-85
2024/01/30 13:41:38;;;;;;;12.30;6.50;;;;;;;4.18;52.19;101617.31;4918913;28;20114;-89
2024/01/30 13:44:29;;;;;;;;;;;;;;;;;;;;;
2024/01/30 13:47:02;;;;;;;16.58;6.57;;;;;;;4.43;50.94;101620.72;4922384;29;20059;-93
2024/01/30 13:50:33;;;;;;;12.23;6.45;;;;;;;4.25;50.49;101583.59;4918224;29;20212;-96
2024/01/30 13:52:58;;;;;;;10.25;6.10;;;;;;;4.45;50.32;101600.88;4864441;29;20769;-95
2024/01/30 13:55:29;;;;;;;8.50;5.45;;;;;;;4.42;49.61;101590.56;4893217;29;20040;-91
2024/01/30 13:57:55;;;;;;;7.88;4.90;;;;;;;4.56;49.07;101599.66;4894638;29;20028;-95
2024/01/30 14:00:25;;;;;;;7.68;5.00;;;;;;;4.47;48.74;101579.38;4894040;29;20028;-93
2024/01/30 14:02:54;;;;;;;10.05;5.72;;;;;;;4.44;48.87;101620.56;4891982;29;20039;-92
2024/01/30 14:05:21;;;;;;;9.98;6.00;;;;;;;4.23;49.94;101578.47;4895856;29;20047;-93
2024/01/30 14:07:56;;;;;;;8.18;5.18;;;;;;;4.41;49.43;101602.22;4899145;29;20465;-91
2024/01/30 14:10:42;;;;;;;20.58;5.63;;;;;;;4.17;49.80;101581.81;4900071;29;20067;-92
2024/01/30 14:13:16;;;;;;;10.15;6.03;;;;;;;4.25;50.00;101587.13;4898677;29;20096;-92
2024/01/30 14:15:42;;;;;;;11.90;6.43;;;;;;;4.43;50.15;101612.72;4900681;29;20056;-89
2024/01/30 14:18:11;;;;;;;10.52;6.03;;;;;;;4.34;49.74;101611.09;4913205;29;20046;-89
2024/01/30 14:20:36;;;;;;;12.70;6.68;;;;;;;4.05;50.31;101612.50;4921402;28;20441;-90
2024/01/30 14:23:02;;;;;;;11.98;6.70;;;;;;;4.08;50.31;101595.34;4918841;28;20043;-90
2024/01/30 14:25:31;;;;;;;13.75;7.65;;;;;;;4.08;51.19;101604.16;4919090;29;20031;-90
2024/01/30 14:28:03;;;;;;;11.77;7.00;;;;;;;4.09;51.54;101600.50;4928042;28;20034;-92
2024/01/30 14:30:37;;;;;;;14.38;8.27;;;;;;;3.91;51.13;101586.56;4936307;28;20034;-93
2024/01/30 14:33:06;;;;;;;17.92;10.98;;;;;;;3.99;51.37;101587.34;4940647;29;20027;-93
2024/01/30 14:35:35;;;;;;;21.02;10.93;;;;;;;3.88;51.68;101584.22;4922619;29;20126;-93
2024/01/30 14:38:25;;;;;;;12.25;7.93;;;;;;;3.79;51.60;101600.22;4924678;29;20031;-94
2024/01/30 14:40:53;;;;;;;14.15;8.27;;;;;;;3.89;51.71;101599.22;4938210;29;20023;-90
2024/01/30 14:43:38;;;;;;;15.43;8.85;;;;;;;3.98;51.78;101619.50;4920411;29;20123;-91
2024/01/30 14:46:08;;;;;;;13.85;8.55;;;;;;;4.01;52.08;101613.84;4921921;29;20019;-93
2024/01/30 14:48:34;;;;;;;15.57;9.32;;;;;;;4.12;51.49;101605.47;4922957;28;20032;-94
2024/01/30 14:51:00;;;;;;;19.13;12.23;;;;;;;4.12;51.69;101605.47;4911471;28;20034;-92
2024/01/30 14:53:36;;;;;;;18.58;10.88;;;;;;;4.02;51.82;101597.66;4928087;29;20059;-93
2024/01/30 14:56:03;;;;;;;18.73;9.73;;;;;;;3.90;52.20;101583.06;4916942;29;20042;-94
2024/01/30 14:58:31;;;;;;;17.60;9.75;;;;;;;4.13;51.70;101604.50;4934428;28;20026;-91
2024/01/30 15:01:04;;;;;;;15.48;9.82;;;;;;;4.00;51.79;101593.50;4937772;28;20090;-94
2024/01/30 15:03:29;;;;;;;16.88;9.93;;;;;;;3.82;52.58;101585.75;4935249;28;20026;-91
2024/01/30 15:05:55;;;;;;;19.92;11.25;;;;;;;3.79;53.26;101599.38;4933868;28;20046;-93
2024/01/30 15:08:21;;;;;;;27.38;10.25;;;;;;;3.78;53.75;101585.25;4933280;28;20029;-90
2024/01/30 15:10:47;;;;;;;19.95;11.43;;;;;;;3.89;53.73;101600.03;4932462;28;20065;-91
2024/01/30 15:13:15;;;;;;;15.77;10.13;;;;;;;3.87;53.08;101599.38;4933249;28;20489;-92
2024/01/30 15:15:40;;;;;;;19.30;10.75;;;;;;;3.93;53.84;101612.03;4946137;28;20031;-91
2024/01/30 15:18:06;;;;;;;20.08;10.55;;;;;;;3.97;53.24;101600.03;4946463;28;20037;-90
2024/01/30 15:20:32;;;;;;;15.60;9.45;;;;;;;4.05;53.06;101609.84;4929229;28;20031;-91
2024/01/30 15:23:07;;;;;;;14.15;8.88;;;;;;;3.78;53.38;101605.72;4930874;28;20050;-89
2024/01/30 15:25:35;;;;;;;15.50;9.30;;;;;;;3.77;52.92;101602.22;4964536;28;20026;-90
2024/01/30 15:28:01;;;;;;;15.98;9.40;;;;;;;3.76;53.55;101608.56;4945453;29;20026;-89
2024/01/30 15:30:27;;;;;;;19.38;10.48;;;;;;;3.69;54.14;101612.06;4908999;29;20131;-91
2024/01/30 15:32:57;;;;;;;19.65;10.13;;;;;;;3.71;54.26;101591.41;4913914;28;20031;-90
2024/01/30 15:35:46;;;;;;;22.05;12.80;;;;;;;3.91;53.72;101600.69;4915592;28;20034;-88
2024/01/30 15:38:11;;;;;;;13.45;8.95;;;;;;;4.10;53.01;101620.81;4925925;28;20062;-91
2024/01/30 15:40:37;;;;;;;14.32;8.00;;;;;;;3.89;53.40;101605.38;4916830;28;20020;-91
2024/01/30 15:43:03;;;;;;;13.95;7.50;;;;;;;3.92;52.36;101606.84;4908965;29;20028;-91
2024/01/30 15:45:30;;;;;;;16.38;8.13;;;;;;;3.92;52.59;101612.19;4894058;29;20409;-91
2024/01/30 15:47:58;;;;;;;16.02;7.10;;;;;;;4.07;52.03;101607.84;4924188;29;20095;-90
2024/01/30 15:50:23;;;;;;;11.63;7.35;;;;;;;3.82;52.56;101599.06;4893275;29;20071;-91
2024/01/30 15:52:50;;;;;;;14.05;7.78;;;;;;;3.74;52.75;101577.75;4892999;29;20122;-91
2024/01/30 15:55:20;;;;;;;16.50;8.70;;;;;;;4.02;52.90;101634.16;4907576;29;20032;-91
2024/01/30 15:57:53;;;;;;;15.35;7.85;;;;;;;3.99;52.41;101605.19;4893852;29;20032;-90
2024/01/30 16:00:21;;;;;;;21.88;10.20;;;;;;;3.94;52.67;101616.34;4895239;29;20043;-90
2024/01/30 16:02:47;;;;;;;30.20;15.57;;;;;;;3.98;53.03;101612.34;4892442;29;20036;-89
2024/01/30 16:05:13;;;;;;;20.73;11.88;;;;;;;3.93;52.81;101606.69;4892466;29;20107;-91
2024/01/30 16:07:38;;;;;;;22.27;12.98;;;;;;;4.10;53.17;101634.16;4897819;28;20026;-94
2024/01/30 16:10:16;;;;;;;64.13;26.33;;;;;;;3.91;53.17;101607.88;4919343;28;20007;-91
2024/01/30 16:12:45;;;;;;;28.80;13.60;;;;;;;4.03;53.37;101626.00;4917258;28;20042;-92
2024/01/30 16:15:14;;;;;;;28.20;14.05;;;;;;;4.05;53.28;101641.84;4909701;28;20054;-92
2024/01/30 16:17:42;;;;;;;25.98;13.40;;;;;;;3.97;54.10;101636.50;4932444;28;20031;-92
2024/01/30 16:20:08;;;;;;;25.08;13.65;;;;;;;3.76;53.50;101610.41;4934312;28;20034;-92
2024/01/30 16:22:34;;;;;;;25.52;14.77;;;;;;;3.79;53.28;101620.69;4913284;29;20051;-92
2024/01/30 16:25:06;;;;;;;31.65;17.33;;;;;;;3.80;54.24;101620.53;4919969;29;20406;-93
2024/01/30 16:27:31;;;;;;;27.17;14.75;;;;;;;3.88;54.24;101640.16;4918608;29;20484;-91
2024/01/30 16:29:57;;;;;;;28.02;16.23;;;;;;;3.82;54.58;101631.88;4919607;29;20036;-90
2024/01/30 16:32:35;;;;;;;29.13;15.10;;;;;;;3.85;53.83;101634.19;4912517;29;20041;-92
2024/01/30 16:35:04;;;;;;;22.15;13.63;;;;;;;3.60;55.02;101612.06;4935955;29;20032;-92
2024/01/30 16:37:32;;;;;;;26.40;13.88;;;;;;;3.75;54.92;101635.34;4921977;29;20043;-89
2024/01/30 16:39:58;;;;;;;25.75;13.40;;;;;;;3.87;54.22;101635.84;4925395;29;20036;-90
2024/01/30 16:42:24;;;;;;;28.48;13.40;;;;;;;3.70;54.84;101641.19;4916108;29;20050;-91
2024/01/30 16:44:49;;;;;;;24.95;13.52;;;;;;;3.70;54.96;101619.06;4933681;29;20028;-90
2024/01/30 16:47:15;;;;;;;26.30;11.60;;;;;;;3.80;55.41;101633.03;4909598;29;20024;-93
2024/01/30 16:49:41;;;;;;;22.10;12.38;;;;;;;3.77;55.34;101633.34;4911151;29;20036;-89
2024/01/30 16:52:07;;;;;;;27.83;13.60;;;;;;;3.79;55.22;101636.69;4912946;29;20170;-89
2024/01/30 16:54:33;;;;;;;25.98;13.90;;;;;;;3.69;54.69;101610.22;4912261;29;20024;-91
2024/01/30 16:56:59;;;;;;;21.15;14.32;;;;;;;3.69;54.95;101620.03;4913821;29;20032;-89
2024/01/30 16:59:27;;;;;;;19.63;12.35;;;;;;;3.51;55.16;101614.88;4906497;29;20031;-90
2024/01/30 17:01:55;;;;;;;31.25;14.05;;;;;;;3.72;55.20;101633.88;4890202;29;20036;-89
2024/01/30 17:04:22;;;;;;;23.55;13.40;;;;;;;3.60;54.68;101605.91;4906783;29;20048;-90
2024/01/30 17:06:57;;;;;;;29.33;14.43;;;;;;;3.80;54.82;101639.19;4891974;29;20038;-90
2024/01/30 17:09:23;;;;;;;27.58;14.10;;;;;;;3.84;54.51;101637.84;4890991;29;20066;-89
2024/01/30 17:11:48;;;;;;;21.98;12.45;;;;;;;3.72;54.04;101635.72;4919931;29;20048;-90
2024/01/30 17:14:16;;;;;;;24.65;11.82;;;;;;;3.77;54.21;101642.19;4913100;29;20036;-90
2024/01/30 17:16:42;;;;;;;21.75;11.95;;;;;;;3.53;54.38;101623.53;4927641;29;20413;-89
2024/01/30 17:19:08;;;;;;;26.65;11.98;;;;;;;3.36;54.88;101617.38;4915057;29;20052;-89
2024/01/30 17:21:34;;;;;;;28.02;12.25;;;;;;;3.20;55.26;101612.88;4914317;29;20052;-89
2024/01/30 17:24:00;;;;;;;33.08;13.25;;;;;;;3.39;54.71;101612.56;4942307;29;20031;-91
2024/01/30 17:26:25;;;;;;;32.92;16.60;;;;;;;3.70;54.64;101643.88;4941244;28;20031;-90
2024/01/30 17:28:51;;;;;;;27.30;13.10;;;;;;;3.59;54.57;101626.38;4922421;29;20035;-89
2024/01/30 17:31:16;;;;;;;25.23;14.38;;;;;;;3.53;54.79;101628.84;4914504;29;20050;-89
2024/01/30 17:33:42;;;;;;;21.00;12.43;;;;;;;3.61;54.68;101629.72;4920978;29;20118;-91
2024/01/30 17:36:08;;;;;;;19.42;11.45;;;;;;;3.67;54.49;101635.34;4913295;29;20007;-91
2024/01/30 17:38:33;;;;;;;23.73;13.40;;;;;;;3.56;54.24;101625.88;4891099;29;20048;-90
2024/01/30 17:41:02;;;;;;;23.35;12.77;;;;;;;3.40;54.72;101621.38;4905587;29;20083;-86
2024/01/30 17:43:27;;;;;;;23.60;13.23;;;;;;;3.40;54.68;101638.19;4906283;29;20080;-90
2024/01/30 17:45:53;;;;;;;19.80;12.40;;;;;;;3.33;55.14;101626.53;4912051;29;20028;-91
2024/01/30 17:48:18;;;;;;;24.33;12.95;;;;;;;3.32;55.64;101624.88;4915119;29;20034;-91
2024/01/30 17:50:44;;;;;;;27.80;13.13;;;;;;;3.13;55.58;101611.84;4917810;29;20111;-95
2024/01/30 17:53:10;;;;;;;27.25;13.35;;;;;;;3.29;55.74;101621.72;4909629;29;20118;-91
2024/01/30 17:55:35;;;;;;;21.80;12.07;;;;;;;3.06;55.88;101602.88;4906522;29;20473;-91
2024/01/30 17:58:03;;;;;;;29.25;15.20;;;;;;;3.22;55.82;101614.38;4908260;29;20031;-91
2024/01/30 18:00:28;;;;;;;19.63;12.00;;;;;;;3.21;55.96;101610.03;4906100;29;20032;-91
2024/01/30 18:02:55;;;;;;;22.23;11.35;;;;;;;3.10;56.18;101598.88;4906667;29;20493;-91
2024/01/30 18:05:24;;;;;;;20.75;11.38;;;;;;;3.15;56.20;101605.38;4908161;29;20035;-90
2024/01/30 18:07:50;;;;;;;20.25;11.43;;;;;;;3.33;55.95;101637.19;4909172;29;20111;-89
2024/01/30 18:10:18;;;;;;;18.00;10.23;;;;;;;3.20;56.12;101611.03;4910458;29;20490;-91
2024/01/30 18:12:45;;;;;;;19.48;11.13;;;;;;;3.23;55.88;101602.72;4910086;29;20055;-91
2024/01/30 18:15:10;;;;;;;24.40;13.93;;;;;;;3.26;55.60;101622.88;4914129;29;20038;-90
2024/01/30 18:17:37;;;;;;;25.10;14.52;;;;;;;3.17;56.03;101615.84;4923180;29;20032;-90
2024/01/30 18:20:04;;;;;;;32.35;14.50;;;;;;;3.30;55.99;101636.66;4905087;29;20044;-88
2024/01/30 18:22:30;;;;;;;22.73;13.70;;;;;;;3.01;56.07;101606.03;4904249;29;20433;-86
2024/01/30 18:24:56;;;;;;;22.20;12.30;;;;;;;2.93;55.91;101592.72;4919692;29;20039;-91
2024/01/30 18:27:22;;;;;;;26.00;12.45;;;;;;;3.08;55.60;101603.53;4888577;29;20067;-90
2024/01/30 18:29:47;;;;;;;22.45;12.77;;;;;;;3.13;55.80;101612.69;4903489;29;20059;-89
2024/01/30 18:32:13;;;;;;;26.85;13.80;;;;;;;3.06;56.00;101595.72;4887692;29;20498;-90
2024/01/30 18:34:39;;;;;;;27.73;13.40;;;;;;;3.19;55.91;101622.69;4889013;29;20035;-89
2024/01/30 18:37:06;;;;;;;18.13;11.15;;;;;;;3.07;55.53;101616.00;4906287;29;20028;-90
2024/01/30 18:39:34;;;;;;;21.40;11.35;;;;;;;3.09;55.86;101598.03;4915259;29;20037;-90
2024/01/30 18:42:00;;;;;;;24.73;12.43;;;;;;;3.10;55.68;101597.06;4914351;29;20024;-90
2024/01/30 18:44:26;;;;;;;19.17;10.68;;;;;;;3.05;55.98;101599.38;4917007;29;20070;-91
2024/01/30 18:46:51;;;;;;;21.00;10.70;;;;;;;3.07;55.58;101599.22;4923292;29;20489;-91
2024/01/30 18:49:17;;;;;;;21.08;10.95;;;;;;;3.07;55.67;101592.03;4925834;29;20027;-91
2024/01/30 18:51:42;;;;;;;20.27;11.60;;;;;;;3.07;56.39;101609.84;4942943;29;20050;-89
2024/01/30 18:54:08;;;;;;;24.67;11.80;;;;;;;3.03;55.83;101606.72;4941635;29;20102;-91
2024/01/30 18:56:34;;;;;;;28.23;11.05;;;;;;;3.01;56.16;101624.66;4940739;29;20030;-90
2024/01/30 18:58:59;;;;;;;17.52;10.35;;;;;;;2.96;56.36;101611.81;4942699;29;20039;-89
2024/01/30 19:01:25;;;;;;;18.00;10.60;;;;;;;2.94;56.72;101610.31;4934240;29;20510;-90
2024/01/30 19:03:50;;;;;;;21.65;11.07;;;;;;;2.99;55.96;101610.69;4919753;29;20034;-88
2024/01/30 19:06:19;;;;;;;22.23;11.20;;;;;;;2.98;56.29;101622.31;4905573;29;20111;-90
2024/01/30 19:08:45;;;;;;;23.08;12.48;;;;;;;3.03;55.97;101620.00;4918950;29;20028;-91
2024/01/30 19:11:37;;;;;;;20.95;11.90;;;;;;;3.04;56.14;101624.31;4903806;29;20024;-89
2024/01/30 19:14:03;;;;;;;18.92;11.32;;;;;;;2.93;55.71;101622.81;4906994;29;20099;-88
2024/01/30 19:16:31;;;;;;;21.55;11.52;;;;;;;2.89;55.55;101596.69;4890145;29;20028;-89
2024/01/30 19:18:57;;;;;;;19.85;11.50;;;;;;;2.90;55.57;101590.38;4889940;29;20020;-91
2024/01/30 19:21:23;;;;;;;18.83;10.93;;;;;;;3.07;55.09;101617.84;4903893;29;20102;-89
2024/01/30 19:23:50;;;;;;;26.30;14.52;;;;;;;2.90;55.13;101611.66;4915211;29;20020;-90
2024/01/30 19:26:16;;;;;;;19.88;11.00;;;;;;;2.90;55.08;101615.13;4922474;29;20410;-90
2024/01/30 19:28:43;;;;;;;19.90;10.30;;;;;;;2.86;54.70;101613.78;4903585;29;20059;-90
2024/01/30 19:31:08;;;;;;;37.50;14.38;;;;;;;2.93;54.56;101621.97;4887462;29;20056;-90
2024/01/30 19:33:34;;;;;;;32.78;13.85;;;;;;;2.89;55.08;101625.97;4901738;29;20020;-89
2024/01/30 19:35:59;;;;;;;19.55;9.18;;;;;;;2.66;55.69;101609.72;4887355;29;20111;-92
2024/01/30 19:38:25;;;;;;;16.70;9.07;;;;;;;2.56;56.33;101609.88;4888326;29;20577;-89
2024/01/30 19:40:52;;;;;;;16.70;9.60;;;;;;;2.67;56.06;101622.06;4886334;29;20104;-91
2024/01/30 19:43:18;;;;;;;17.92;9.07;;;;;;;2.51;56.52;101583.78;4886853;29;20128;-91
2024/01/30 19:45:43;;;;;;;14.25;9.15;;;;;;;2.63;55.86;101600.25;4928265;29;20027;-89
2024/01/30 19:48:09;;;;;;;17.38;9.65;;;;;;;2.68;55.72;101603.28;4908002;29;20028;-90
2024/01/30 19:50:34;;;;;;;15.98;9.63;;;;;;;2.64;55.86;101601.94;4909531;29;20043;-90
2024/01/30 19:53:02;;;;;;;17.08;9.35;;;;;;;2.60;55.89;101596.09;4927878;29;20050;-91
2024/01/30 19:55:28;;;;;;;19.67;10.00;;;;;;;2.69;56.15;101602.28;4922976;29;20058;-90
2024/01/30 19:57:54;;;;;;;18.35;9.25;;;;;;;2.53;55.48;101584.47;4926300;29;20024;-91
2024/01/30 20:00:20;;;;;;;19.17;8.93;;;;;;;2.81;54.99;101611.63;4906436;29;20096;-91
2024/01/30 20:02:46;;;;;;;14.55;9.65;;;;;;;2.46;55.85;101593.22;4905869;29;20028;-92
2024/01/30 20:05:13;;;;;;;18.15;10.02;;;;;;;2.56;55.40;101596.59;4905263;29;20035;-89
2024/01/30 20:07:38;;;;;;;16.35;9.20;;;;;;;2.62;55.65;101601.28;4890384;29;20108;-91
2024/01/30 20:10:04;;;;;;;17.83;9.75;;;;;;;2.62;55.72;101582.66;4891732;29;20476;-91
2024/01/30 20:12:31;;;;;;;19.05;10.52;;;;;;;2.67;55.61;101585.66;4891148;29;20036;-92
2024/01/30 20:14:56;;;;;;;17.33;10.90;;;;;;;2.54;55.86;101578.13;4906426;29;20158;-89
2024/01/30 20:17:22;;;;;;;17.13;10.13;;;;;;;2.72;56.07;101603.78;4891594;29;20032;-87
2024/01/30 20:19:48;;;;;;;16.63;10.00;;;;;;;2.53;56.13;101591.56;4921104;29;20561;-90
2024/01/30 20:22:14;;;;;;;18.55;10.63;;;;;;;2.38;55.78;101572.75;4906337;29;20548;-90
2024/01/30 20:24:42;;;;;;;18.60;10.18;;;;;;;2.58;55.74;101589.28;4906613;29;20020;-92
2024/01/30 20:27:08;;;;;;;19.20;11.07;;;;;;;2.64;54.69;101588.66;4926448;29;20083;-89
2024/01/30 20:29:37;;;;;;;17.50;10.27;;;;;;;2.73;54.47;101606.28;4931458;29;20113;-90
2024/01/30 20:32:03;;;;;;;19.10;11.35;;;;;;;2.64;54.66;101591.31;4921499;29;20090;-89
2024/01/30 20:34:31;;;;;;;17.65;9.73;;;;;;;2.53;55.00;101584.47;4924099;29;20038;-90
2024/01/30 20:36:57;;;;;;;16.10;9.13;;;;;;;2.33;55.37;101562.59;4917214;29;20030;-91
2024/01/30 20:39:22;;;;;;;18.33;9.90;;;;;;;2.19;55.48;101568.53;4942533;29;20031;-90
2024/01/30 20:41:48;;;;;;;25.48;12.93;;;;;;;2.23;56.31;101576.00;4942909;29;20027;-90
2024/01/30 20:44:16;;;;;;;19.35;11.43;;;;;;;2.40;56.71;101598.16;4943580;29;20058;-91
2024/01/30 20:46:41;;;;;;;25.73;13.57;;;;;;;2.25;56.60;101590.97;4928339;29;20054;-87
2024/01/30 20:49:09;;;;;;;24.73;12.70;;;;;;;2.09;56.42;101563.31;4934407;29;20113;-89
2024/01/30 20:51:35;;;;;;;23.08;13.25;;;;;;;2.27;57.51;101575.72;4920941;29;20509;-90
2024/01/30 20:54:00;;;;;;;23.80;12.10;;;;;;;2.19;57.28;101563.19;4909305;29;20027;-91
2024/01/30 20:56:26;;;;;;;22.90;12.55;;;;;;;2.10;57.82;101550.88;4924376;29;20031;-90
2024/01/30 20:58:53;;;;;;;22.02;11.90;;;;;;;2.11;56.58;101557.84;4905048;29;20034;-89
2024/01/30 21:01:18;;;;;;;28.80;12.10;;;;;;;1.95;56.71;101542.66;4924092;29;20519;-89
2024/01/30 21:03:44;;;;;;;19.23;10.70;;;;;;;1.99;56.24;101559.94;4908273;29;20032;-90
2024/01/30 21:06:10;;;;;;;18.08;8.93;;;;;;;1.96;56.36;101570.91;4906769;29;20180;-91
2024/01/30 21:08:36;;;;;;;18.48;9.43;;;;;;;1.78;55.98;101545.22;4907350;29;20027;-89
2024/01/30 21:11:02;;;;;;;14.63;8.10;;;;;;;1.71;56.35;101543.34;4908492;29;20406;-90
2024/01/30 21:13:30;;;;;;;24.95;12.48;;;;;;;1.72;58.44;101568.91;4908261;29;20039;-90
2024/01/30 21:15:56;;;;;;;19.48;11.32;;;;;;;1.49;59.91;101553.47;4909685;29;20156;-90
2024/01/30 21:18:21;;;;;;;21.65;11.02;;;;;;;1.58;60.16;101554.41;4915327;29;20075;-91
2024/01/30 21:20:47;;;;;;;28.13;13.43;;;;;;;1.41;60.96;101548.97;4916517;29;20075;-91
2024/01/30 21:23:14;;;;;;;20.98;10.15;;;;;;;1.49;60.75;101579.22;4941286;29;20126;-87
2024/01/30 21:25:39;;;;;;;18.33;10.43;;;;;;;1.37;61.31;101566.19;4927389;29;20465;-90
2024/01/30 21:28:06;;;;;;;21.98;11.25;;;;;;;1.27;60.83;101546.03;4927968;29;20031;-90
2024/01/30 21:30:34;;;;;;;20.42;10.57;;;;;;;1.25;61.22;101559.44;4942148;29;20042;-91
2024/01/30 21:33:00;;;;;;;22.63;11.00;;;;;;;1.34;61.20;101565.66;4928201;29;20030;-90
2024/01/30 21:35:27;;;;;;;18.48;10.68;;;;;;;1.33;61.43;101562.19;4943123;29;20053;-90
2024/01/30 21:37:54;;;;;;;37.40;12.82;;;;;;;1.35;61.88;101569.97;4943355;29;20489;-90
2024/01/30 21:43:05;;;;;;;24.98;13.50;;;;;;;1.28;61.86;101568.91;4945639;29;20090;-90
2024/01/30 21:45:30;;;;;;;28.88;13.20;;;;;;;0.96;62.10;101539.31;4941933;29;20035;-91
2024/01/30 21:47:57;;;;;;;24.88;12.73;;;;;;;0.95;61.54;101550.88;4926978;29;20057;-90
2024/01/30 21:50:27;;;;;;;24.55;12.35;;;;;;;1.19;61.93;101573.34;4942570;29;20043;-91
2024/01/30 21:52:54;;;;;;;24.30;11.75;;;;;;;1.04;62.01;101541.19;4941417;29;20030;-91
2024/01/30 21:55:20;;;;;;;23.38;11.85;;;;;;;0.99;62.42;101546.94;4930468;29;20051;-89
2024/01/30 21:57:46;;;;;;;24.85;12.93;;;;;;;0.97;62.34;101551.56;4924636;29;20028;-90
2024/01/30 22:00:13;;;;;;;21.15;11.82;;;;;;;0.82;62.73;101550.44;4902094;29;20509;-90
2024/01/30 22:02:38;;;;;;;22.20;11.65;;;;;;;0.80;61.60;101550.56;4908251;29;20032;-91
2024/01/30 22:05:07;;;;;;;23.35;11.75;;;;;;;0.86;60.86;101540.38;4908026;29;20104;-90
2024/01/30 22:07:33;;;;;;;21.08;10.98;;;;;;;1.02;60.95;101561.75;4920793;29;20049;-91
2024/01/30 22:09:59;;;;;;;21.02;11.63;;;;;;;1.08;60.89;101570.88;4901978;29;20044;-88
2024/01/30 22:12:24;;;;;;;33.42;15.07;;;;;;;1.06;62.07;101578.16;4904966;29;20071;-90
2024/01/30 22:14:50;;;;;;;30.30;13.68;;;;;;;0.79;62.50;101545.44;4906717;29;20157;-90
2024/01/30 22:17:17;;;;;;;26.48;13.30;;;;;;;0.57;63.07;101544.88;4906497;29;20035;-91
2024/01/30 22:19:43;;;;;;;28.23;14.35;;;;;;;0.55;63.37;101548.66;4919404;29;20032;-91
2024/01/30 22:22:09;;;;;;;26.25;14.30;;;;;;;0.52;63.91;101554.25;4905692;29;20470;-90
2024/01/30 22:24:35;;;;;;;22.13;12.52;;;;;;;0.44;63.91;101536.47;4937629;29;20099;-89
2024/01/30 22:27:05;;;;;;;27.70;14.77;;;;;;;0.52;64.44;101546.28;4921669;29;20027;-90
2024/01/30 22:29:32;;;;;;;25.23;14.40;;;;;;;0.56;63.61;101548.53;4938444;29;20091;-90
2024/01/30 22:32:00;;;;;;;29.65;14.23;;;;;;;0.48;63.59;101519.28;4921441;29;20043;-89
2024/01/30 22:34:30;;;;;;;23.98;13.25;;;;;;;0.48;64.18;101515.78;4938307;29;20023;-89
2024/01/30 22:36:56;;;;;;;23.02;13.65;;;;;;;0.63;64.78;101540.78;4938496;29;20580;-90
2024/01/30 22:39:22;;;;;;;28.77;14.20;;;;;;;0.63;64.94;101542.63;4940963;29;20035;-91
2024/01/30 22:41:47;;;;;;;24.20;12.25;;;;;;;0.50;64.73;101517.31;4912248;29;20521;-90
2024/01/30 22:44:13;;;;;;;28.05;13.38;;;;;;;0.43;64.54;101512.75;4907325;29;20118;-90
2024/01/30 22:46:41;;;;;;;26.90;13.18;;;;;;;0.54;64.80;101529.28;4922805;29;20450;-90
2024/01/30 22:49:08;;;;;;;36.45;14.27;;;;;;;0.50;64.62;101517.31;4938057;29;20612;-91
2024/01/30 22:51:37;;;;;;;28.70;13.88;;;;;;;0.26;65.01;101506.44;4906684;29;20106;-91
2024/01/30 22:54:02;;;;;;;26.38;12.85;;;;;;;0.13;65.57;101520.03;4923874;29;20032;-90
2024/01/30 22:56:29;;;;;;;23.30;12.88;;;;;;;0.16;65.13;101499.34;4912416;29;20522;-91
2024/01/30 22:58:56;;;;;;;25.35;13.30;;;;;;;0.17;65.51;101502.88;4920600;29;20066;-91
2024/01/30 23:01:22;;;;;;;30.95;15.13;;;;;;;0.16;65.45;101514.41;4931750;29;20024;-91
2024/01/30 23:03:48;;;;;;;25.67;13.77;;;;;;;0.13;65.61;101497.03;4919727;29;20028;-91
2024/01/30 23:06:14;;;;;;;29.48;14.57;;;;;;;0.29;65.51;101512.28;4921775;29;20378;-90
2024/01/30 23:08:40;;;;;;;35.17;17.55;;;;;;;0.33;64.96;101537.50;4906597;29;20111;-91
2024/01/30 23:11:11;;;;;;;36.25;16.52;;;;;;;0.04;66.03;101512.94;4905412;29;20027;-90
2024/01/30 23:13:38;;;;;;;52.65;18.23;;;;;;;-0.05;66.08;101506.72;4921347;29;20034;-90
2024/01/30 23:16:06;;;;;;;38.58;17.17;;;;;;;-0.13;66.73;101510.09;4903045;29;20040;-90
2024/01/30 23:18:31;;;;;;;30.42;15.52;;;;;;;-0.22;66.65;101497.75;4919730;29;20060;-90